Industry Canada IC ID Search

A Database for searching and keeping updated with new IC Wireless Applications

Including

REL - Radio Equipment List

TEL - Terminal Equipment List

Recent IC ApplicaitonsRSS Feed

IC ID Model Company Date
IC 9880A-P3800T Remote of DC 18V P3800K RC High Speed Truck One World Technologies, Inc. (9880A) 2017-08-17
IC 4141B-TW522 TW-522 Dual radio Wireless Wallplate, 802.11n/ac. Extreme Networks Inc. (4141B) 2017-08-17
IC 4170B-44254H Bluetooth Device SONY MOBILE COMMUNICATIONS Inc. (4170B) 2017-08-17
IC 216A-SCC70 Compact Stereo System Panasonic Canada Inc. (216A) 2017-08-17
IC 9595A-AIVIP32R0 Navigation system with Bluetooth and WLAN Robert Bosch Car Multimedia GmbH. (9595A) 2017-08-17
IC 3248A-ID21A Smart Key Valeo Comfort and Driving Assistance (3248A) 2017-08-17
IC 1000X-ND26 Smart Watch Intel Corporation- New Devices Group (1000X) 2017-08-17
IC 22937-TAH120 Tempi Tahmo, Inc (22937) 2017-08-17
IC 22977-BT40 4.0 Bluetooth Adapter Shenzhen Xinyahong Electronic Technology Co.,Ltd. (22977) 2017-08-17
IC 23013-8ARU1625 Selfie remote BENJAMINS S.R.L. (23013) 2017-08-17
IC 21761-PW300BT active loudspeaker DONGGUAN MEILOON ACOUSTIC EQUIPMENTS CO., LTD. (21761) 2017-08-17
IC 9091A-MCP3030 Conference Mate Combo Spracht (9091A) 2017-08-17
IC 9091A-WS4014 Bluetooth Speaker Blunote 2.0 Spracht (9091A) 2017-08-17
IC 11387A-343BT PORTABLE CD+G KARAOKE PLAYER WITH BLUETOOTH The Singing Machine Company, Inc. (11387A) 2017-08-17
IC 2546A-CG64 Tire Pressure Monitoring System - Transmitter SCHRADER ELECTRONICS LIMITED (2546A) 2017-08-17
IC 3147A-602230C 802.11 ac/a/b/g/n M.2 2230 + Bluetooth 4.2 module LAIRD TECHNOLOGIES (3147A) 2017-08-17
IC 10900A-KTR2280A Aviation Communications Transceiver Honeywell International - Bendix King (10900A) 2017-08-16
IC 3879A-TB2015 Turtle Beach Ear Force Stealth 600P RX Wireless Audio Headset Voyetra Turtle Beach, Inc. (3879A) 2017-08-16
IC 5786A-AC017T Baby Monitor ANGELCARE MONITORS INC. (5786A) 2017-08-16
IC 216Q-1761 Bluetooth Module Panasonic Industrial Devices Europe GmbH (216Q) 2017-08-16
IC 22513-ZSM009 Zip BLE-WiFi Bridge Switchmate Home, LLC (22513) 2017-08-16
IC 22780-WM007 Fashionable Wireless Mouse MINISO CORPORATION (22780) 2017-08-16
IC 22778-22PURE Home arrest monitor SuperCom Ltd. (22778) 2017-08-16
IC 22829-GBF1319B Glass Body Fat Analyzer Zhongshan Lifesense Electronics Co.,Ltd (22829) 2017-08-16
IC 22844-KDS5 Remote Control WinTide Brand Limited (22844) 2017-08-16
IC 22851-3008D0 Dock Charger Shenzhen Immotor Technology Co., Ltd. (22851) 2017-08-16
IC 22888-BP115C01 Remote control aerobat series with RF Function Shantou Brainpower Electronic Tech Factory (22888) 2017-08-16
IC 22890-X1 Trongle TV BOX Shenzhen AZW Technology Co., Ltd. (22890) 2017-08-16
IC 22886-MX1702 Box MatchX GmbH (22886) 2017-08-16
IC 7280B-140701 Secured Wireless Access Point Fortinet, Inc. (7280B) 2017-08-16
IC 20361-MWRC01EL Remote control with RF Function Minwa Electronics Co., Ltd (20361) 2017-08-16
IC 9025A-SH829 WIRELESS EARPHONES ATI Electronics (ShenZhen) Co., LTD. (9025A) 2017-08-16
IC 4502A-CAC0399 Furreal Makers Proto Max HASBRO CANADA CORP (4502A) 2017-08-16
IC 12338B-DPG1M DPG Desk Panels LINAK Canada Inc. (12338B) 2017-08-16
IC 3636B-0146 -- Harris Corporation, RF Communications Division (3636B) 2017-08-16
IC 22935-ENGINEWATCH Brain Master Set (710011W) HOPSTECH INDUSTRIES LTD. (22935) 2017-08-16
IC 22935-RCREMOTE Walking Robot Car Set (709008R) HOPSTECH INDUSTRIES LTD. (22935) 2017-08-16
IC 10301A-EM7455F WWAN module Getac Technology Corporation (10301A) 2017-08-16
IC 9404A-AIM8I computer with wireless function Advantech Co., Ltd. (9404A) 2017-08-16
IC 2721A-3003227 Remote Control Transmitter RADIO SYSTEMS CORPORATION (2721A) 2017-08-16
IC 4504A-643651C Construct'n Learn Smart Workbench with Bluetooth & RFID function MGA ENTERTAINMENT (HK) LTD. (4504A) 2017-08-16
IC 10301A-8265NG WLAN module Getac Technology Corporation (10301A) 2017-08-15
IC 10301A-EM7455S410 WWAN module Getac Technology Corporation (10301A) 2017-08-15
IC 11387A-ISM1060BT PEDESTAL KARAOKE SYSTEM The Singing Machine Company, Inc. (11387A) 2017-08-15
IC 22025-A500643 Video Monitor Quadrant Technology (Shenzhen) Co., Ltd. (22025) 2017-08-15
IC 22025-BA10B643 Baby Audio Monitor Quadrant Technology (Shenzhen) Co., Ltd. (22025) 2017-08-15
IC 22025-BA10P643 Baby Audio Monitor Quadrant Technology (Shenzhen) Co., Ltd. (22025) 2017-08-15
IC 511B-30613X30 Handheld Marine Transceiver YAESU MUSEN CO., LTD. (511B) 2017-08-15
IC 109AS-IP901 Set Top Box ARRIS Group, Inc. (109AS) 2017-08-15
IC 8944A-GSPSCM2 Satelliteradio module for use on the Inmarsat satellite network Inmarsat Limited (8944A) 2017-08-15
IC 10541A-IPA90 Speaker ION AUDIO,LLC (10541A) 2017-08-15
IC 2914D-T16SZ Radio Control FUTABA CORPORATION (2914D) 2017-08-15
IC 8595A-1DIQN3NN LTE Single Mode u-blox AG (8595A) 2017-08-15
IC 8110A-UWBM07 WifiBT Module Zykronix Inc. Taiwan Branch (8110A) 2017-08-15
IC 22579-P3303A Smart Terminal Poynt Co. (22579) 2017-08-15
IC 22579-P3303B Smart Terminal Poynt Co. (22579) 2017-08-15
IC 22678-SP100 Acer Smart Plug Acer Cloud Technology (Taiwan) Inc. (22678) 2017-08-15
IC 22780-H21 Bluetooth Headset MINISO CORPORATION (22780) 2017-08-15
IC 22780-WM287 Ultrathin Wireless Mouse Model MINISO CORPORATION (22780) 2017-08-15
IC 22850-R633 Keyfinder Shenzhen Deepdream Electronics Co., Ltd (22850) 2017-08-15
IC 22851-1001GOT1 Immotor GO Personal Vehicle Shenzhen Immotor Technology Co., Ltd. (22851) 2017-08-15
IC 22961-CMAMICO Internet/FM Digital Radio with Bluetooth and Spotify Como Audio LLC (22961) 2017-08-15
IC 21030-H8951LQA Cellular Wi-Fi Router Hongdian Corporation (21030) 2017-08-15
IC 7087A-1WREH500FX Keyless Entry System SEGI LIMITED (7087A) 2017-08-15
IC 7087A-2WREH500FX Keyless Entry System SEGI LIMITED (7087A) 2017-08-15
IC 10103A-OMA42 WiFi Access Point EnGenius Technologies (10103A) 2017-08-15
IC 9764A-D1150410 Digital Photo Printer Sinfonia Technology Co., Ltd. (9764A) 2017-08-15
IC 1052F-AP011 GPS Sports Monitor Seiko Epson Corporation (1052F) 2017-08-15
IC 4634A-1153EB Remote Control NIKON CORPORATION (4634A) 2017-08-15
IC 11107A-01761TX24G Recoil (Rifle) Skyrocket Toys, LLC (11107A) 2017-08-15
IC 7442A-WAPR2ND Small weatherproof 2.4Ghz wireless access point MIKROTIKLS SIA (7442A) 2017-08-15
IC 4141B-AP7522 Oak External Extreme Networks Inc. (4141B) 2017-08-15
IC 4141B-AP7532 Birch External (3x3 MIMO) Extreme Networks Inc. (4141B) 2017-08-15
IC 4141B-AP8432I 802.11AC MU-MIMO, dual Radio, INT ANT Extreme Networks Inc. (4141B) 2017-08-15
IC 4141B-AP8533 802.11AC MU-MIMO, TRI Radio, EXT ANT Extreme Networks Inc. (4141B) 2017-08-15
IC 4141B-AP8533I 802.11AC MU-MIMO, TRI Radio, INT ANT Extreme Networks Inc. (4141B) 2017-08-15
IC 4141B-CDR2G 802.11 b/g/n radio module Extreme Networks Inc. (4141B) 2017-08-15
IC 4141B-CDR5G 802.11 an/ac radio module Extreme Networks Inc. (4141B) 2017-08-15
IC 4141B-CDRDB 802.11 a/b/g/n/ac radio module Extreme Networks Inc. (4141B) 2017-08-15
IC 2468C-EMG6765Q10A Ethernet Gateway Zyxel Communications Corporation (2468C) 2017-08-15
IC 22913-SHWZ001 Electric heater SHANGHAI WINDO TRADING CO.,LTD. (22913) 2017-08-15
IC 10421A-05017 KURIO WATCH 2.0+ CATALANA DE INVESTIGACION Y DESARROLLO DE ELECTRONICA-INTERACTIVE SLU (10421A) 2017-08-14
IC 20098-1089774 Security Controller Tesla Motors, Inc. (20098) 2017-08-14
IC 11805A-GL800A1703 Cendence SZ DJI TECHNOLOGY CO., LTD (11805A) 2017-08-14
IC 10060A-92053000 NEXA Touch Free Dispenser Beacon ECOLAB Inc. (10060A) 2017-08-14
IC 22275-MHA00025505 HF RFID Hand Held Scanner MacDonald Humfrey (Automation) Ltd. (22275) 2017-08-14
IC 22938-ZVOC3 VR ONE Connect Carl ZEISS AG (22938) 2017-08-14
IC 22025-A420J643 CAM Pro HDAW/ Deere120W Quadrant Technology (Shenzhen) Co., Ltd. (22025) 2017-08-14
IC 21923-AMC000001 1080P Pan/Tilt Wireless IP Camera Amcrest Technologies LLC (21923) 2017-08-14
IC 1792A-03164 Low Power Transmitter Garmin International Inc. (1792A) 2017-08-14
IC 20514-WTC90543 Electronic Hearing Protector 3M CONSTRUCTION & HOME IMPROVEMENT MARKETS DIVISION (20514) 2017-08-14
IC 7956A-AM9221 Polk Signa Solo DEI Sales Inc., dba Polk Audio (7956A) 2017-08-14
IC 7812D-DWMI2017A WMI Continental Automotive GmbH (7812D) 2017-08-14
IC 7812D-DWMI2017B WMI Continental Automotive GmbH (7812D) 2017-08-14
IC 20271-BHACP011 Ring Bot Home Automation, Inc. (20271) 2017-08-14
IC 20391-5280S2 ENVIRONMENTAL SENSOR Loop Labs, Inc. dba Notion (20391) 2017-08-14
IC 11938A-WDW1 Door sensor Wink Labs, Inc. (11938A) 2017-08-14
IC 11938A-WMOT1 Motion Sensor(PIR) Wink Labs, Inc. (11938A) 2017-08-14
IC 11938A-WSIR1 Alarm Wink Labs, Inc. (11938A) 2017-08-14
IC 21124-WF12066 A smart Watch with Bluetooth and Wifi technology Shanghai Mobvoi Information Technology Company Limited (21124) 2017-08-14
IC 21124-WF12086 Smart Watch Shanghai Mobvoi Information Technology Company Limited (21124) 2017-08-14
IC 22794-FENV1 Smart Wireless Parking Sensor FenSens, Inc (22794) 2017-08-14
IC 22800-SLGCP101 ESL Gateway SOLUM CO.,LTD. (22800) 2017-08-14
IC 22852-PBLN51822M Low Power Device (2400-2483.5 MHz) PROCHILD INC. (22852) 2017-08-14
IC 144D-RR214 Digital Camera RICOH COMPANY LTD. (144D) 2017-08-11
IC 20098-1089773 B-pillar Endpoint Tesla Motors, Inc. (20098) 2017-08-11
IC 20098-1089775 Fascia Endpoint Tesla Motors, Inc. (20098) 2017-08-11
IC 20319-SC5411A Network Interface Card for Street Light Controller Petra Systems, Inc. (20319) 2017-08-11
IC 3048A-1790 -- MICROSOFT CORPORATION (3048A) 2017-08-11
IC 7181A-IL100 The Wearable Smart Phone Alert SERENE INNOVATIONS INC. (7181A) 2017-08-11
IC 8976A-NFC05A1 Nucleo expansion board STMicroelectronics SAS (8976A) 2017-08-11
IC 10541A-IPK3 Portable Karaoke PA speaker with vocal effects ION AUDIO,LLC (10541A) 2017-08-11
IC 20570-24900 TOY Transmitter Just Play (H.K.) Ltd (20570) 2017-08-11
IC 10664A-PM80G1 Mobile Computer POINTMOBILE CO.,LTD (10664A) 2017-08-11
IC 5123A-MGM12P0 802.15.4 Module Silicon Laboratories Finland Oy (5123A) 2017-08-11
IC 5123A-MGM12P2 802.15.4 Module Silicon Laboratories Finland Oy (5123A) 2017-08-11
IC 22636-NS9633 Electric Scooter Ninebot (Changzhou) Tech Co., Ltd. (22636) 2017-08-11
IC 22642-TIK1 Tik1 live camera Tikaway (22642) 2017-08-11
IC 22796-NU001BT Bluetooth Block Makeblock Co., Ltd. (22796) 2017-08-11
IC 22812-1004272R DRONE LUNAR 10INCH WITH CAMERA Shantou City Hengdi Industry Co., Ltd (22812) 2017-08-11
IC 22812-1004272T DRONE LUNAR 10INCH WITH CAMERA Shantou City Hengdi Industry Co., Ltd (22812) 2017-08-11
IC 22862-TY201701 Remote Controller Ningbo Taiyuan Tools& Measuring Tools Co., Ltd. (22862) 2017-08-11
IC 22942-I31V Wireless NVR kit Shenzhen Kean Digital Co., Ltd. (22942) 2017-08-11
IC 22942-N441L Wireless NVR kit Shenzhen Kean Digital Co., Ltd. (22942) 2017-08-11
IC 22944-LSWIPC1 WirelessWiFi IP Camera Dongguan Shengding Electronic Technology Co., Ltd (22944) 2017-08-11
IC 11858A-T4001 Bluetooth Location Finder Tile, Inc. (11858A) 2017-08-11
IC 20122-5462032017 LED ceiling lamp Elec-Tech International Co.,ltd (20122) 2017-08-11
IC 7075A-4130080B Class B AIS Transceiver SRT MARINE TECHNOLOGY LTD. (7075A) 2017-08-11
IC 2914D-R7008SB Radio Control FUTABA CORPORATION (2914D) 2017-08-11
IC 9650A-GF3725H TOY Transmitter New Bright Industrial Co., Ltd. (9650A) 2017-08-11
IC 9650A-GF7AA TOY Receiver New Bright Industrial Co., Ltd. (9650A) 2017-08-11
IC 9650A-GF7AS TOY Receiver New Bright Industrial Co., Ltd. (9650A) 2017-08-11
IC 7647A-600D Wireless Module DT RESEARCH INC. TAIWAN BRANCH (7647A) 2017-08-11
IC 20371-ST3 Ankle worn electronic monitoring device Buddi Limited (20371) 2017-08-11
IC 4170B-22031A GSM/WCDMA/LTE Phone with BT, DTS/UNII a/b/g/n/ac, GPS & NFC SONY MOBILE COMMUNICATIONS Inc. (4170B) 2017-08-11
IC 8764B-9080DG QN9080 BLE Dongle with RF Function NXP Semiconductors Canada (8764B) 2017-08-11
IC 1231A-6360430 Periodic operation transmitter Tunstall Healthcare (UK) Ltd (1231A) 2017-08-11
IC 1231A-6360431 Periodic operation transmitter Tunstall Healthcare (UK) Ltd (1231A) 2017-08-11
IC 5131A-LM940 Cellular Module TELIT COMMUNICATIONS S.p.A. (5131A) 2017-08-11
IC 409B-MHCV90W HOME AUDIO SYSTEM SONY CORPORATION (409B) 2017-08-11
IC 4970A-KONO3 WIFI Thermostat LUX Products Corporation (4970A) 2017-08-11
IC 5788A-RSB36J 2.0 SOUND BAR WITH INTEGRATED SUBWOOFER Klipsch Group, Inc. (5788A) 2017-08-10
IC 1052F-AP010 GPS Sports Monitor Seiko Epson Corporation (1052F) 2017-08-10
IC 12116A-482017002 R/C controller GUANHUA IMPORT & EXPORT TRADE CO., LTD. (12116A) 2017-08-10
IC 1178A-U9W30X WiFi Module FUNAI ELECTRIC CO. LTD. (1178A) 2017-08-10
IC 10819B-1530R X5 Active Streaming/X15+WiFi/TILT+WiFi Asian Express Holdings Limited (10819B) 2017-08-10
IC 10819B-1530T X5 Active Streaming/X15+WiFi/TILT+WiFi Asian Express Holdings Limited (10819B) 2017-08-10
IC 10819B-PL1650R X5-HD Active Drone/X5+Wifi Streaming Drone Asian Express Holdings Limited (10819B) 2017-08-10
IC 10819B-PL1750R HD Video Drone/Quantum HD/Quantum HD+wifi streaming Asian Express Holdings Limited (10819B) 2017-08-10
IC 12163A-ABR2 August Doorbell Cam August Home Inc. (12163A) 2017-08-10
IC 255A-8065512 Touch Light Bluetooth Speaker The Source (Bell) Electronics Inc. (255A) 2017-08-10
IC 4794A-CRM33007 -- CARDIAC PACEMAKERS, INC.(DBA BOSTON SCIENTIFIC CORP.) (4794A) 2017-08-10
IC 22621-P1 Smart POS system Shanghai Sunmi Technology Co.,Ltd. (22621) 2017-08-10
IC 22686-P2258924 Sensor Node Pall Corporation (22686) 2017-08-10
IC 22875-SABINE3000 Wireless Recording Headsets Sabine Technologies Co., Ltd. (22875) 2017-08-10
IC 22875-SABINE6100 Wireless Panoramic Microphone Sabine Technologies Co., Ltd. (22875) 2017-08-10
IC 3880B-CFD Digital Transmission System(Wireless Gaming Headset USB Dongle) KINGSTON DIGITAL INC. (3880B) 2017-08-10
IC 649E-SMT380 Tablet with Bluetooth, WLAN, and ANT+ SAMSUNG ELECTRONICS CO. LTD. (649E) 2017-08-10
IC 6670A-DG3450 Digital Gateway Modem ARRIS Group, Inc. (6670A) 2017-08-10
IC 1792A-03336 Mobile vehicle interface device Garmin International Inc. (1792A) 2017-08-10
IC 2914D-FMT02 14-channel Digital Proportional R/C controller FUTABA CORPORATION (2914D) 2017-08-10
IC 5131A-ME910C1NA LTE Module CAT M TELIT COMMUNICATIONS S.p.A. (5131A) 2017-08-10
IC 5131A-ME910C1NV LTE Module CAT M TELIT COMMUNICATIONS S.p.A. (5131A) 2017-08-10
IC 2703N-LCW006 WLAN Module LG Electronics Inc. (2703N) 2017-08-09
IC 20240-PC201 CB RADIO PRESIDENT ELECTRONICS USA (20240) 2017-08-09
IC 1849C-8500 VOiP Conference Phone with Bluetooth Polycom Inc. (1849C) 2017-08-09
IC 10462A-ZB7412 BLE Wireless Module Jorjin Technologies Inc. (10462A) 2017-08-09
IC 21941-KSC100H USB charger with wireless function Kum Oh Electronics Co., Ltd. (21941) 2017-08-09
IC 7442A-9115HND Licence-Exempt Local Area Network Transmitter MIKROTIKLS SIA (7442A) 2017-08-09
IC 11233A-WLE900VXVW 802.11ac Dual Band Module Vieworks Co., Ltd. (11233A) 2017-08-09
IC 8853A-WPA8630 AV1300 Gigabit Powerline ac Wi-Fi Extender TP-LINK TECHNOLOGIES CO., LTD. (8853A) 2017-08-09
IC 10199A-1000FA GPS Device RM ACQUISITION LLC. (10199A) 2017-08-09
IC 22431-000001 Computer peripheral for motion tracking of users head EDTracker LTD (22431) 2017-08-09
IC 22431-000002 USB Wireless Dongle EDTracker LTD (22431) 2017-08-09
IC 11387A-SMM465 Bluetooth speaker with Wireless Microphone The Singing Machine Company, Inc. (11387A) 2017-08-09
IC 22025-A311643 Video Camera Quadrant Technology (Shenzhen) Co., Ltd. (22025) 2017-08-09
IC 22025-A356643 Stuart Cam, CFH-S10, Minion Cam Quadrant Technology (Shenzhen) Co., Ltd. (22025) 2017-08-09
IC 22025-A400J643 Wi-Fi motion activated camera Quadrant Technology (Shenzhen) Co., Ltd. (22025) 2017-08-09
IC 10819B-PL1630R HD Video Drone + Wifi Asian Express Holdings Limited (10819B) 2017-08-09
IC 10819B-PL1630T Ocula HD Viedo Drone + Wifi Asian Express Holdings Limited (10819B) 2017-08-09
IC 3568A-X00ID ASUS Phone ASUSTeK COMPUTER INC. (3568A) 2017-08-09
IC 7998A-ICONNFC1 Passport Scanner DESKO GmbH (7998A) 2017-08-09
IC 5074A-ATC40J3KN DIGITAL CAR AVN SYSTEM Hyundai MOBIS Co., Ltd (5074A) 2017-08-09
IC 22794-BTTNV1 Tap QuickLaunch Button FenSens, Inc (22794) 2017-08-09
IC 22872-ULTRASCANB Low-Powered Wireless Device SkyAutoNet Inc (22872) 2017-08-09
IC 3880B-CF Digital Transmission System (Wireless Gaming Headdset) KINGSTON DIGITAL INC. (3880B) 2017-08-09
IC 3348A-TMXM328A Wrist Watch Timex Group USA, Inc. (3348A) 2017-08-09
IC 21700-NIUXL NIUX Wi-Fi module for household and professional appliances ELECTROLUX ITALIA S.p.A. (21700) 2017-08-09
IC 1135B-80034300 Range Extender VTECH TELECOMMUNICATIONS LIMITED (1135B) 2017-08-09
IC 986B-IZABT50 Aromatherapy Speaker with Lighting SDI TECHNOLOGIES INC. (986B) 2017-08-08
IC 9354A-NH26FDD ALLIANCE_N20 SOLiD, Inc. (9354A) 2017-08-08
IC 5049A-LTVTH3 Weather Station LA CROSSE TECHNOLOGY LTD. (5049A) 2017-08-08
IC 7442A-WBM Woobm-USB with WiFi MIKROTIKLS SIA (7442A) 2017-08-08
IC 5115A-EX5700 WanderGuard BLUE EX5700 Controller AeroScout LTD. (5115A) 2017-08-08
IC 11885A-888CORE Electrocardiograph Qardio, Inc (11885A) 2017-08-08
IC 4418A-S00168 Bluetooth Speaker LOGITECH FAR EAST LTD. (4418A) 2017-08-08
IC 4418A-YR0064 Wireless Keyboard LOGITECH FAR EAST LTD. (4418A) 2017-08-08
IC 6545A-UAPACIWP UniFi AC In Wall Pro Wi-Fi Access Point UBIQUITI NETWORKS (6545A) 2017-08-08
IC 5123A-MGM12P3 802.15.4 module Silicon Laboratories Finland Oy (5123A) 2017-08-08
IC 8073A-CS1082CA Handheld RFID Reader Convergence Systems Limited (8073A) 2017-08-08
IC 5251A-1122 Wireless PIR DIGITAL MONITORING PRODUCTS INC. (5251A) 2017-08-08
IC 20499-22625F24 Air Elite 115 Race Set with RF function Toy State International Limited (20499) 2017-08-08
IC 20199-I092E00 Fixed product with WiFi function Hangzhou Hikvision Digital Technology Co., Ltd. (20199) 2017-08-08
IC 20199-I0D2100 network camera with WiFi function Hangzhou Hikvision Digital Technology Co., Ltd. (20199) 2017-08-08
IC 20199-I0D2400 network camera with WiFi function Hangzhou Hikvision Digital Technology Co., Ltd. (20199) 2017-08-08
IC 9650A-GF3725A TOY Receiver New Bright Industrial Co., Ltd. (9650A) 2017-08-08
IC 8764B-9080DK QN9080DK Board with RF Function NXP Semiconductors Canada (8764B) 2017-08-08
IC 7784A-QR700 Guardian QR700 Public Safety Cellphone-Mate Inc. (7784A) 2017-08-08
IC 409B-NWZX300 Digital Music Player SONY CORPORATION (409B) 2017-08-04
IC 12131A-ZERD2 Smart Watch Kronoz LLC. (12131A) 2017-08-04
IC 7181A-SS201X Super Bed Shaker SERENE INNOVATIONS INC. (7181A) 2017-08-04
IC 4491A-WM6687 Dual-Band 802.11ac 4x4 MIMO PCI Express Mini Card Wireless Network Adapter Lite-On Technology Corp. (4491A) 2017-08-04
IC 8853A-RE450V2 AC1750 Wi-Fi Range Extender TP-LINK TECHNOLOGIES CO., LTD. (8853A) 2017-08-04
IC 11243A-JT1098 FLASHING LIGHT KARAOKE Modern Electronics Factory Ltd (11243A) 2017-08-04
IC 9404A-AIM8Q Computer Advantech Co., Ltd. (9404A) 2017-08-04
IC 850G-GHRH014T FOB ASSY for Engine Start System OMRON Automotive Electronics Co. Ltd. (850G) 2017-08-04
IC 12003A-JPB15607B Vintage 3-Speed Bluetooth Turntable JIN BALANCE LIMITED (12003A) 2017-08-04
IC 255A-8065423 Wireless Charging Alarm Clock The Source (Bell) Electronics Inc. (255A) 2017-08-04
IC 22713-RTJS1701 Bluetooth speaker Flashbay Electronics (22713) 2017-08-04
IC 22753-DMSW1 Digital Music Score Terrada Music Score Co., Ltd. (22753) 2017-08-04
IC 22810-1031 TABLET PC Hydration Labs, Inc. (22810) 2017-08-04
IC 22866-MWISP 802.11 a/b/g/n/ac wireless LAN + BT Module American Portwell Technology Inc. (22866) 2017-08-04
IC 22867-AL4602 Camera Shenzhen jinsheng Technology Co., Ltd. (22867) 2017-08-04
IC 22867-FS5612 NVR Shenzhen jinsheng Technology Co., Ltd. (22867) 2017-08-04
IC 22869-RLC410W WiFi IP Camera Shenzhen Reo-link Digital Technology Co., Ltd (22869) 2017-08-04
IC 22889-B00OUKQOLA 2.4GHz FC-16 TRIGGER KIT Neewer Technology Co., Ltd (22889) 2017-08-04
IC 20174-BTSPK26 Bluetooth speakers Edco Electronics Inc. (20174) 2017-08-04
IC 3862E-SX4WB SKORPIO X4 - Rugged Mobile Computer with 1D/2D imager Datalogic S.r.l. (3862E) 2017-08-04
IC 20499-94370T24 1:16 Scale Assortment - Trucks (Off Road) Toy State International Limited (20499) 2017-08-04
IC 649E-SMN950U Multi band GSM/EDGE/UMTS/LTE Phone with Bluetooth, WLAN, RFID and ANT+ SAMSUNG ELECTRONICS CO. LTD. (649E) 2017-08-04
IC 12588A-V3BT Electromechanical door lock with wireless interface(s) Poly-Control aps (12588A) 2017-08-04
IC 12588A-V3BTZB Electromechanical door lock with wireless interface(s) Poly-Control aps (12588A) 2017-08-04
IC 12588A-V3BTZU Electromechanical door lock with wireless interface(s) Poly-Control aps (12588A) 2017-08-04
IC 9959A-BLESENSOR2 Tyre Pressure Monitor Sensor CUB ELECPARTS INC (9959A) 2017-08-04
IC 1792A-03250 GPS & Two-Way Radio Garmin International Inc. (1792A) 2017-08-04
IC 986B-B67B Bluetooth Speaker SDI TECHNOLOGIES INC. (986B) 2017-08-03
IC 22253-CRADLE CRADLE Dosime, Inc. (22253) 2017-08-03
IC 22253-DOSIME Dosimeter Dosime, Inc. (22253) 2017-08-03
IC 9043A-VIFANORDIC3 Active Wireless Speaker Guoguang Electric Co., Ltd. (9043A) 2017-08-03
IC 21530-70232B Brookstone True Wireless Bluetooth Earbuds The Gem Group, Inc. (21530) 2017-08-03
IC 21257-2017DAP High Resolution Audio Player Onkyo&Pioneer Innovations Corporation (21257) 2017-08-03
IC 4216A-CS8100LHA1 HD 180-Degree Wi-Fi Camera D-LINK CORPORATION (4216A) 2017-08-03
IC 6369A-AMR1 HUAWEI Sport Heart Rate Headphones Huawei Technologies Co., Ltd. (6369A) 2017-08-03
IC 6545A-UAPACSHD UniFi Access Point UBIQUITI NETWORKS (6545A) 2017-08-03
IC 22636-NT9527 Ninebot KickScooter Ninebot (Changzhou) Tech Co., Ltd. (22636) 2017-08-03
IC 22778-22TAG Home arrest monitor SuperCom Ltd. (22778) 2017-08-03
IC 22942-I41CB IP Camera Shenzhen Kean Digital Co., Ltd. (22942) 2017-08-03
IC 3348A-TMXM329 Wrist Watch Timex Group USA, Inc. (3348A) 2017-08-03
IC 21326-CENTAURIV2 Commercial RFID Scanner Eventbrite, Inc. (21326) 2017-08-03
IC 22884-RGOHELAWL R-GO HE MOUSE LARGE WIRELESS R-Go Tools BV (22884) 2017-08-03